sensor_id;sensor_type;location;lat;lon;timestamp;P1;durP1;ratioP1;P2;durP2;ratioP2
33876;SDS011;20166;51.738;7.158;2024-02-04T00:01:59;21.17;;;11.30;;
33876;SDS011;20166;51.738;7.158;2024-02-04T00:04:46;19.47;;;9.17;;
33876;SDS011;20166;51.738;7.158;2024-02-04T00:07:33;23.23;;;10.23;;
33876;SDS011;20166;51.738;7.158;2024-02-04T00:10:19;19.53;;;8.90;;
33876;SDS011;20166;51.738;7.158;2024-02-04T00:13:06;20.37;;;9.70;;
33876;SDS011;20166;51.738;7.158;2024-02-04T00:15:52;19.03;;;8.87;;
33876;SDS011;20166;51.738;7.158;2024-02-04T00:18:39;21.97;;;10.83;;
33876;SDS011;20166;51.738;7.158;2024-02-04T00:21:27;22.13;;;10.30;;
33876;SDS011;20166;51.738;7.158;2024-02-04T00:24:13;22.63;;;10.03;;
33876;SDS011;20166;51.738;7.158;2024-02-04T00:26:59;15.57;;;8.87;;
33876;SDS011;20166;51.738;7.158;2024-02-04T00:29:46;23.30;;;9.83;;
33876;SDS011;20166;51.738;7.158;2024-02-04T00:32:32;20.47;;;8.73;;
33876;SDS011;20166;51.738;7.158;2024-02-04T00:35:18;22.90;;;9.83;;
33876;SDS011;20166;51.738;7.158;2024-02-04T00:38:06;17.23;;;8.70;;
33876;SDS011;20166;51.738;7.158;2024-02-04T00:40:53;15.27;;;8.40;;
33876;SDS011;20166;51.738;7.158;2024-02-04T00:43:41;17.87;;;8.43;;
33876;SDS011;20166;51.738;7.158;2024-02-04T00:46:28;13.20;;;7.43;;
33876;SDS011;20166;51.738;7.158;2024-02-04T00:49:14;13.03;;;7.27;;
33876;SDS011;20166;51.738;7.158;2024-02-04T00:52:00;15.27;;;7.57;;
33876;SDS011;20166;51.738;7.158;2024-02-04T00:54:48;12.67;;;6.80;;
33876;SDS011;20166;51.738;7.158;2024-02-04T00:57:35;13.13;;;6.93;;
33876;SDS011;20166;51.738;7.158;2024-02-04T01:00:21;10.10;;;6.03;;
33876;SDS011;20166;51.738;7.158;2024-02-04T01:03:08;13.33;;;6.77;;
33876;SDS011;20166;51.738;7.158;2024-02-04T01:05:54;12.20;;;7.07;;
33876;SDS011;20166;51.738;7.158;2024-02-04T01:08:40;11.20;;;6.43;;
33876;SDS011;20166;51.738;7.158;2024-02-04T01:11:28;18.73;;;8.00;;
33876;SDS011;20166;51.738;7.158;2024-02-04T01:14:15;12.33;;;7.10;;
33876;SDS011;20166;51.738;7.158;2024-02-04T01:17:02;14.50;;;6.87;;
33876;SDS011;20166;51.738;7.158;2024-02-04T01:19:48;14.97;;;7.60;;
33876;SDS011;20166;51.738;7.158;2024-02-04T01:22:34;12.93;;;6.20;;
33876;SDS011;20166;51.738;7.158;2024-02-04T01:25:21;9.57;;;5.83;;
33876;SDS011;20166;51.738;7.158;2024-02-04T01:28:09;11.73;;;5.53;;
33876;SDS011;20166;51.738;7.158;2024-02-04T01:30:55;9.00;;;5.10;;
33876;SDS011;20166;51.738;7.158;2024-02-04T01:33:41;9.73;;;5.53;;
33876;SDS011;20166;51.738;7.158;2024-02-04T01:36:27;10.10;;;5.10;;
33876;SDS011;20166;51.738;7.158;2024-02-04T01:39:15;7.30;;;4.57;;
33876;SDS011;20166;51.738;7.158;2024-02-04T01:42:02;6.13;;;3.97;;
33876;SDS011;20166;51.738;7.158;2024-02-04T01:44:51;9.10;;;4.30;;
33876;SDS011;20166;51.738;7.158;2024-02-04T01:47:37;6.50;;;4.07;;
33876;SDS011;20166;51.738;7.158;2024-02-04T01:50:24;6.37;;;3.87;;
33876;SDS011;20166;51.738;7.158;2024-02-04T01:53:10;5.83;;;3.57;;
33876;SDS011;20166;51.738;7.158;2024-02-04T01:55:57;6.43;;;4.03;;
33876;SDS011;20166;51.738;7.158;2024-02-04T01:58:43;6.43;;;4.53;;
33876;SDS011;20166;51.738;7.158;2024-02-04T02:01:32;6.93;;;4.13;;
33876;SDS011;20166;51.738;7.158;2024-02-04T02:04:21;8.73;;;4.87;;
33876;SDS011;20166;51.738;7.158;2024-02-04T02:07:07;8.03;;;5.33;;
33876;SDS011;20166;51.738;7.158;2024-02-04T02:09:54;8.63;;;5.27;;
33876;SDS011;20166;51.738;7.158;2024-02-04T02:12:42;9.17;;;5.03;;
33876;SDS011;20166;51.738;7.158;2024-02-04T02:15:34;9.73;;;5.10;;
33876;SDS011;20166;51.738;7.158;2024-02-04T02:18:29;7.63;;;4.73;;
33876;SDS011;20166;51.738;7.158;2024-02-04T02:21:26;9.27;;;4.93;;
33876;SDS011;20166;51.738;7.158;2024-02-04T02:24:34;10.73;;;5.83;;
33876;SDS011;20166;51.738;7.158;2024-02-04T02:27:22;14.40;;;6.30;;
33876;SDS011;20166;51.738;7.158;2024-02-04T02:30:08;10.43;;;5.87;;
33876;SDS011;20166;51.738;7.158;2024-02-04T02:32:55;10.33;;;6.27;;
33876;SDS011;20166;51.738;7.158;2024-02-04T02:35:43;11.37;;;6.40;;
33876;SDS011;20166;51.738;7.158;2024-02-04T02:38:37;16.33;;;6.40;;
33876;SDS011;20166;51.738;7.158;2024-02-04T02:41:30;9.67;;;5.70;;
33876;SDS011;20166;51.738;7.158;2024-02-04T02:44:20;12.87;;;6.10;;
33876;SDS011;20166;51.738;7.158;2024-02-04T02:47:07;14.57;;;6.53;;
33876;SDS011;20166;51.738;7.158;2024-02-04T02:49:54;14.03;;;6.47;;
33876;SDS011;20166;51.738;7.158;2024-02-04T02:52:41;11.43;;;6.20;;
33876;SDS011;20166;51.738;7.158;2024-02-04T02:55:27;18.17;;;6.43;;
33876;SDS011;20166;51.738;7.158;2024-02-04T02:58:15;13.23;;;6.13;;
33876;SDS011;20166;51.738;7.158;2024-02-04T03:01:01;11.47;;;7.10;;
33876;SDS011;20166;51.738;7.158;2024-02-04T03:03:47;16.07;;;7.03;;
33876;SDS011;20166;51.738;7.158;2024-02-04T03:06:34;20.47;;;7.43;;
33876;SDS011;20166;51.738;7.158;2024-02-04T03:09:20;16.27;;;7.43;;
33876;SDS011;20166;51.738;7.158;2024-02-04T03:12:06;14.70;;;7.13;;
33876;SDS011;20166;51.738;7.158;2024-02-04T03:14:54;15.93;;;6.80;;
33876;SDS011;20166;51.738;7.158;2024-02-04T03:17:42;16.10;;;8.30;;
33876;SDS011;20166;51.738;7.158;2024-02-04T03:20:29;14.20;;;6.97;;
33876;SDS011;20166;51.738;7.158;2024-02-04T03:23:15;14.90;;;6.97;;
33876;SDS011;20166;51.738;7.158;2024-02-04T03:26:01;14.23;;;7.13;;
33876;SDS011;20166;51.738;7.158;2024-02-04T03:28:47;15.03;;;7.40;;
33876;SDS011;20166;51.738;7.158;2024-02-04T03:31:35;19.60;;;7.93;;
33876;SDS011;20166;51.738;7.158;2024-02-04T03:34:21;16.13;;;7.90;;
33876;SDS011;20166;51.738;7.158;2024-02-04T03:37:08;14.70;;;7.47;;
33876;SDS011;20166;51.738;7.158;2024-02-04T03:39:54;16.83;;;7.43;;
33876;SDS011;20166;51.738;7.158;2024-02-04T03:42:40;17.03;;;6.83;;
33876;SDS011;20166;51.738;7.158;2024-02-04T03:45:26;14.97;;;8.00;;
33876;SDS011;20166;51.738;7.158;2024-02-04T03:48:14;18.07;;;8.10;;
33876;SDS011;20166;51.738;7.158;2024-02-04T03:51:01;13.77;;;7.77;;
33876;SDS011;20166;51.738;7.158;2024-02-04T03:53:47;14.70;;;7.53;;
33876;SDS011;20166;51.738;7.158;2024-02-04T03:56:35;14.40;;;7.00;;
33876;SDS011;20166;51.738;7.158;2024-02-04T03:59:21;16.93;;;7.00;;
33876;SDS011;20166;51.738;7.158;2024-02-04T04:02:07;13.63;;;7.37;;
33876;SDS011;20166;51.738;7.158;2024-02-04T04:04:55;13.77;;;7.20;;
33876;SDS011;20166;51.738;7.158;2024-02-04T04:07:41;13.60;;;6.90;;
33876;SDS011;20166;51.738;7.158;2024-02-04T04:10:28;15.50;;;7.50;;
33876;SDS011;20166;51.738;7.158;2024-02-04T04:13:14;11.57;;;7.37;;
33876;SDS011;20166;51.738;7.158;2024-02-04T04:16:00;13.17;;;6.90;;
33876;SDS011;20166;51.738;7.158;2024-02-04T04:18:46;13.80;;;7.73;;
33876;SDS011;20166;51.738;7.158;2024-02-04T04:21:34;16.50;;;8.13;;
33876;SDS011;20166;51.738;7.158;2024-02-04T04:24:22;21.67;;;8.27;;
33876;SDS011;20166;51.738;7.158;2024-02-04T04:27:08;14.03;;;8.00;;
33876;SDS011;20166;51.738;7.158;2024-02-04T04:29:55;16.43;;;9.00;;
33876;SDS011;20166;51.738;7.158;2024-02-04T04:32:41;20.67;;;8.40;;
33876;SDS011;20166;51.738;7.158;2024-02-04T04:35:27;16.40;;;8.67;;
33876;SDS011;20166;51.738;7.158;2024-02-04T04:38:15;27.70;;;9.23;;
33876;SDS011;20166;51.738;7.158;2024-02-04T04:41:01;20.23;;;9.03;;
33876;SDS011;20166;51.738;7.158;2024-02-04T04:43:48;15.27;;;8.27;;
33876;SDS011;20166;51.738;7.158;2024-02-04T04:46:37;20.30;;;7.43;;
33876;SDS011;20166;51.738;7.158;2024-02-04T04:49:23;19.70;;;9.00;;
33876;SDS011;20166;51.738;7.158;2024-02-04T04:52:10;16.67;;;7.93;;
33876;SDS011;20166;51.738;7.158;2024-02-04T04:54:57;14.97;;;7.77;;
33876;SDS011;20166;51.738;7.158;2024-02-04T04:57:44;20.10;;;8.83;;
33876;SDS011;20166;51.738;7.158;2024-02-04T05:00:30;19.33;;;8.97;;
33876;SDS011;20166;51.738;7.158;2024-02-04T05:03:16;20.10;;;9.33;;
33876;SDS011;20166;51.738;7.158;2024-02-04T05:06:03;25.27;;;9.93;;
33876;SDS011;20166;51.738;7.158;2024-02-04T05:08:49;20.13;;;9.00;;
33876;SDS011;20166;51.738;7.158;2024-02-04T05:11:37;18.53;;;9.23;;
33876;SDS011;20166;51.738;7.158;2024-02-04T05:14:23;20.47;;;8.63;;
33876;SDS011;20166;51.738;7.158;2024-02-04T05:17:09;14.67;;;7.70;;
33876;SDS011;20166;51.738;7.158;2024-02-04T05:19:56;18.70;;;9.07;;
33876;SDS011;20166;51.738;7.158;2024-02-04T05:22:42;21.60;;;8.90;;
33876;SDS011;20166;51.738;7.158;2024-02-04T05:25:28;16.63;;;7.10;;
33876;SDS011;20166;51.738;7.158;2024-02-04T05:28:16;19.33;;;8.27;;
33876;SDS011;20166;51.738;7.158;2024-02-04T05:31:02;17.93;;;7.67;;
33876;SDS011;20166;51.738;7.158;2024-02-04T05:33:48;18.90;;;7.50;;
33876;SDS011;20166;51.738;7.158;2024-02-04T05:36:35;15.57;;;7.07;;
33876;SDS011;20166;51.738;7.158;2024-02-04T05:39:22;18.50;;;7.47;;
33876;SDS011;20166;51.738;7.158;2024-02-04T05:42:09;21.73;;;7.67;;
33876;SDS011;20166;51.738;7.158;2024-02-04T05:44:57;14.83;;;7.13;;
33876;SDS011;20166;51.738;7.158;2024-02-04T05:47:43;19.63;;;8.17;;
33876;SDS011;20166;51.738;7.158;2024-02-04T05:50:29;20.60;;;7.53;;
33876;SDS011;20166;51.738;7.158;2024-02-04T05:53:16;18.80;;;8.33;;
33876;SDS011;20166;51.738;7.158;2024-02-04T05:56:02;20.60;;;8.77;;
33876;SDS011;20166;51.738;7.158;2024-02-04T05:58:49;25.57;;;8.77;;
33876;SDS011;20166;51.738;7.158;2024-02-04T06:01:37;18.33;;;8.13;;
33876;SDS011;20166;51.738;7.158;2024-02-04T06:04:24;27.47;;;11.40;;
33876;SDS011;20166;51.738;7.158;2024-02-04T06:07:10;18.00;;;8.77;;
33876;SDS011;20166;51.738;7.158;2024-02-04T06:09:56;24.47;;;10.27;;
33876;SDS011;20166;51.738;7.158;2024-02-04T06:12:44;23.00;;;10.93;;
33876;SDS011;20166;51.738;7.158;2024-02-04T06:15:31;17.17;;;8.77;;
33876;SDS011;20166;51.738;7.158;2024-02-04T06:18:19;30.67;;;10.40;;
33876;SDS011;20166;51.738;7.158;2024-02-04T06:21:05;20.33;;;9.67;;
33876;SDS011;20166;51.738;7.158;2024-02-04T06:23:52;20.80;;;10.67;;
33876;SDS011;20166;51.738;7.158;2024-02-04T06:26:38;25.77;;;10.83;;
33876;SDS011;20166;51.738;7.158;2024-02-04T06:29:25;21.17;;;10.13;;
33876;SDS011;20166;51.738;7.158;2024-02-04T06:32:11;21.00;;;9.87;;
33876;SDS011;20166;51.738;7.158;2024-02-04T06:34:59;20.63;;;9.67;;
33876;SDS011;20166;51.738;7.158;2024-02-04T06:37:46;19.77;;;9.90;;
33876;SDS011;20166;51.738;7.158;2024-02-04T06:40:32;18.87;;;9.73;;
33876;SDS011;20166;51.738;7.158;2024-02-04T06:43:19;18.53;;;9.93;;
33876;SDS011;20166;51.738;7.158;2024-02-04T06:46:05;23.10;;;9.67;;
33876;SDS011;20166;51.738;7.158;2024-02-04T06:48:52;21.70;;;9.40;;
33876;SDS011;20166;51.738;7.158;2024-02-04T06:51:40;19.13;;;9.53;;
33876;SDS011;20166;51.738;7.158;2024-02-04T06:54:26;18.30;;;8.93;;
33876;SDS011;20166;51.738;7.158;2024-02-04T06:57:13;17.97;;;9.03;;
33876;SDS011;20166;51.738;7.158;2024-02-04T06:59:59;17.30;;;8.13;;
33876;SDS011;20166;51.738;7.158;2024-02-04T07:02:45;15.33;;;7.53;;
33876;SDS011;20166;51.738;7.158;2024-02-04T07:05:31;16.67;;;8.63;;
33876;SDS011;20166;51.738;7.158;2024-02-04T07:08:20;15.53;;;7.50;;
33876;SDS011;20166;51.738;7.158;2024-02-04T07:11:06;13.63;;;7.00;;
33876;SDS011;20166;51.738;7.158;2024-02-04T07:13:53;16.70;;;6.30;;
33876;SDS011;20166;51.738;7.158;2024-02-04T07:16:43;11.87;;;6.47;;
33876;SDS011;20166;51.738;7.158;2024-02-04T07:19:29;12.80;;;6.60;;
33876;SDS011;20166;51.738;7.158;2024-02-04T07:22:16;16.93;;;8.00;;
33876;SDS011;20166;51.738;7.158;2024-02-04T07:25:04;15.30;;;7.10;;
33876;SDS011;20166;51.738;7.158;2024-02-04T07:27:51;12.20;;;6.30;;
33876;SDS011;20166;51.738;7.158;2024-02-04T07:30:38;12.80;;;6.50;;
33876;SDS011;20166;51.738;7.158;2024-02-04T07:33:24;11.40;;;6.53;;
33876;SDS011;20166;51.738;7.158;2024-02-04T07:36:13;11.97;;;6.40;;
33876;SDS011;20166;51.738;7.158;2024-02-04T07:39:00;11.57;;;7.13;;
33876;SDS011;20166;51.738;7.158;2024-02-04T07:41:50;14.93;;;6.90;;
33876;SDS011;20166;51.738;7.158;2024-02-04T07:44:38;12.37;;;6.23;;
33876;SDS011;20166;51.738;7.158;2024-02-04T07:47:24;15.37;;;6.63;;
33876;SDS011;20166;51.738;7.158;2024-02-04T07:50:11;16.07;;;6.37;;
33876;SDS011;20166;51.738;7.158;2024-02-04T07:52:58;15.63;;;6.60;;
33876;SDS011;20166;51.738;7.158;2024-02-04T07:55:44;13.53;;;6.70;;
33876;SDS011;20166;51.738;7.158;2024-02-04T07:58:32;13.77;;;6.43;;
33876;SDS011;20166;51.738;7.158;2024-02-04T08:01:18;14.37;;;6.63;;
33876;SDS011;20166;51.738;7.158;2024-02-04T08:04:04;13.20;;;6.83;;
33876;SDS011;20166;51.738;7.158;2024-02-04T08:06:54;13.63;;;6.20;;
33876;SDS011;20166;51.738;7.158;2024-02-04T08:09:40;12.43;;;6.23;;
33876;SDS011;20166;51.738;7.158;2024-02-04T08:12:26;12.13;;;6.27;;
33876;SDS011;20166;51.738;7.158;2024-02-04T08:15:14;14.40;;;6.30;;
33876;SDS011;20166;51.738;7.158;2024-02-04T08:18:01;12.53;;;6.30;;
33876;SDS011;20166;51.738;7.158;2024-02-04T08:20:52;10.27;;;5.97;;
33876;SDS011;20166;51.738;7.158;2024-02-04T08:23:38;11.57;;;6.07;;
33876;SDS011;20166;51.738;7.158;2024-02-04T08:26:25;9.47;;;5.70;;
33876;SDS011;20166;51.738;7.158;2024-02-04T08:29:11;10.23;;;5.27;;
33876;SDS011;20166;51.738;7.158;2024-02-04T08:31:59;9.00;;;5.47;;
33876;SDS011;20166;51.738;7.158;2024-02-04T08:34:45;12.67;;;5.97;;
33876;SDS011;20166;51.738;7.158;2024-02-04T08:37:32;13.80;;;5.50;;
33876;SDS011;20166;51.738;7.158;2024-02-04T08:40:18;10.97;;;5.43;;
33876;SDS011;20166;51.738;7.158;2024-02-04T08:43:04;10.70;;;5.30;;
33876;SDS011;20166;51.738;7.158;2024-02-04T08:45:51;10.40;;;5.20;;
33876;SDS011;20166;51.738;7.158;2024-02-04T08:48:39;9.63;;;5.37;;
33876;SDS011;20166;51.738;7.158;2024-02-04T08:51:25;14.97;;;5.30;;
33876;SDS011;20166;51.738;7.158;2024-02-04T08:54:15;8.07;;;4.83;;
33876;SDS011;20166;51.738;7.158;2024-02-04T08:57:02;8.13;;;4.67;;
33876;SDS011;20166;51.738;7.158;2024-02-04T08:59:49;9.03;;;4.53;;
33876;SDS011;20166;51.738;7.158;2024-02-04T09:02:35;4.90;;;3.53;;
33876;SDS011;20166;51.738;7.158;2024-02-04T09:05:23;8.13;;;4.60;;
33876;SDS011;20166;51.738;7.158;2024-02-04T09:08:09;7.67;;;3.83;;
33876;SDS011;20166;51.738;7.158;2024-02-04T09:10:56;8.90;;;4.87;;
33876;SDS011;20166;51.738;7.158;2024-02-04T09:13:42;8.00;;;4.53;;
33876;SDS011;20166;51.738;7.158;2024-02-04T09:16:29;9.50;;;4.23;;
33876;SDS011;20166;51.738;7.158;2024-02-04T09:19:15;9.10;;;4.10;;
33876;SDS011;20166;51.738;7.158;2024-02-04T09:22:03;7.90;;;4.27;;
33876;SDS011;20166;51.738;7.158;2024-02-04T09:24:49;5.30;;;3.33;;
33876;SDS011;20166;51.738;7.158;2024-02-04T09:27:36;9.00;;;3.93;;
33876;SDS011;20166;51.738;7.158;2024-02-04T09:30:23;5.77;;;3.77;;
33876;SDS011;20166;51.738;7.158;2024-02-04T09:33:09;6.97;;;3.67;;
33876;SDS011;20166;51.738;7.158;2024-02-04T09:35:55;5.63;;;3.80;;
33876;SDS011;20166;51.738;7.158;2024-02-04T09:38:43;8.37;;;3.23;;
33876;SDS011;20166;51.738;7.158;2024-02-04T09:41:30;6.47;;;3.97;;
33876;SDS011;20166;51.738;7.158;2024-02-04T09:44:16;5.00;;;3.33;;
33876;SDS011;20166;51.738;7.158;2024-02-04T09:47:03;5.47;;;3.57;;
33876;SDS011;20166;51.738;7.158;2024-02-04T09:49:51;4.33;;;3.23;;
33876;SDS011;20166;51.738;7.158;2024-02-04T09:52:40;6.37;;;3.80;;
33876;SDS011;20166;51.738;7.158;2024-02-04T09:55:34;6.67;;;3.50;;
33876;SDS011;20166;51.738;7.158;2024-02-04T09:58:22;4.27;;;3.27;;
33876;SDS011;20166;51.738;7.158;2024-02-04T10:01:08;4.97;;;3.50;;
33876;SDS011;20166;51.738;7.158;2024-02-04T10:03:56;5.93;;;2.90;;
33876;SDS011;20166;51.738;7.158;2024-02-04T10:06:42;8.83;;;3.50;;
33876;SDS011;20166;51.738;7.158;2024-02-04T10:09:29;6.47;;;3.43;;
33876;SDS011;20166;51.738;7.158;2024-02-04T10:12:17;4.13;;;2.90;;
33876;SDS011;20166;51.738;7.158;2024-02-04T10:15:04;3.37;;;2.73;;
33876;SDS011;20166;51.738;7.158;2024-02-04T10:17:51;6.40;;;3.50;;
33876;SDS011;20166;51.738;7.158;2024-02-04T10:20:38;16.20;;;7.03;;
33876;SDS011;20166;51.738;7.158;2024-02-04T10:23:25;5.93;;;3.30;;
33876;SDS011;20166;51.738;7.158;2024-02-04T10:26:12;5.93;;;3.00;;
33876;SDS011;20166;51.738;7.158;2024-02-04T10:29:01;8.47;;;3.73;;
33876;SDS011;20166;51.738;7.158;2024-02-04T10:31:48;5.87;;;3.37;;
33876;SDS011;20166;51.738;7.158;2024-02-04T10:34:36;4.87;;;2.90;;
33876;SDS011;20166;51.738;7.158;2024-02-04T10:37:23;4.07;;;2.77;;
33876;SDS011;20166;51.738;7.158;2024-02-04T10:40:14;3.93;;;2.77;;
33876;SDS011;20166;51.738;7.158;2024-02-04T10:43:03;4.30;;;2.90;;
33876;SDS011;20166;51.738;7.158;2024-02-04T10:45:55;3.83;;;3.03;;
33876;SDS011;20166;51.738;7.158;2024-02-04T10:48:42;5.47;;;2.60;;
33876;SDS011;20166;51.738;7.158;2024-02-04T10:51:30;4.23;;;2.57;;
33876;SDS011;20166;51.738;7.158;2024-02-04T10:54:18;6.50;;;3.37;;
33876;SDS011;20166;51.738;7.158;2024-02-04T10:57:10;3.63;;;2.87;;
33876;SDS011;20166;51.738;7.158;2024-02-04T10:59:58;5.20;;;3.03;;
33876;SDS011;20166;51.738;7.158;2024-02-04T11:02:50;3.90;;;2.80;;
33876;SDS011;20166;51.738;7.158;2024-02-04T11:05:39;6.37;;;2.83;;
33876;SDS011;20166;51.738;7.158;2024-02-04T11:08:27;5.43;;;3.30;;
33876;SDS011;20166;51.738;7.158;2024-02-04T11:11:14;4.40;;;2.93;;
33876;SDS011;20166;51.738;7.158;2024-02-04T11:14:03;4.67;;;3.30;;
33876;SDS011;20166;51.738;7.158;2024-02-04T11:16:58;4.53;;;3.13;;
33876;SDS011;20166;51.738;7.158;2024-02-04T11:20:13;4.17;;;3.17;;
33876;SDS011;20166;51.738;7.158;2024-02-04T11:23:22;4.37;;;3.10;;
33876;SDS011;20166;51.738;7.158;2024-02-04T11:26:19;6.20;;;3.50;;
33876;SDS011;20166;51.738;7.158;2024-02-04T11:29:07;7.17;;;4.27;;
33876;SDS011;20166;51.738;7.158;2024-02-04T11:31:53;8.97;;;4.33;;
33876;SDS011;20166;51.738;7.158;2024-02-04T11:34:43;6.73;;;3.80;;
33876;SDS011;20166;51.738;7.158;2024-02-04T11:37:32;6.80;;;3.90;;
33876;SDS011;20166;51.738;7.158;2024-02-04T11:40:20;7.53;;;3.90;;
33876;SDS011;20166;51.738;7.158;2024-02-04T11:43:11;7.60;;;4.07;;
33876;SDS011;20166;51.738;7.158;2024-02-04T11:45:58;13.20;;;5.90;;
33876;SDS011;20166;51.738;7.158;2024-02-04T11:48:51;14.00;;;6.83;;
33876;SDS011;20166;51.738;7.158;2024-02-04T11:51:38;7.93;;;3.97;;
33876;SDS011;20166;51.738;7.158;2024-02-04T11:54:27;4.73;;;3.20;;
33876;SDS011;20166;51.738;7.158;2024-02-04T11:57:14;5.10;;;2.90;;
33876;SDS011;20166;51.738;7.158;2024-02-04T12:00:01;4.50;;;3.00;;
33876;SDS011;20166;51.738;7.158;2024-02-04T12:02:59;4.13;;;2.93;;
33876;SDS011;20166;51.738;7.158;2024-02-04T12:05:46;16.77;;;6.10;;
33876;SDS011;20166;51.738;7.158;2024-02-04T12:08:33;5.27;;;2.93;;
33876;SDS011;20166;51.738;7.158;2024-02-04T12:11:20;2.60;;;2.17;;
33876;SDS011;20166;51.738;7.158;2024-02-04T12:14:08;6.37;;;2.50;;
33876;SDS011;20166;51.738;7.158;2024-02-04T12:16:55;4.23;;;2.43;;
33876;SDS011;20166;51.738;7.158;2024-02-04T12:19:42;10.40;;;5.53;;
33876;SDS011;20166;51.738;7.158;2024-02-04T12:22:29;3.00;;;2.20;;
33876;SDS011;20166;51.738;7.158;2024-02-04T12:25:15;3.50;;;2.30;;
33876;SDS011;20166;51.738;7.158;2024-02-04T12:28:05;2.37;;;1.40;;
33876;SDS011;20166;51.738;7.158;2024-02-04T12:30:54;2.93;;;1.97;;
33876;SDS011;20166;51.738;7.158;2024-02-04T12:33:41;2.47;;;1.70;;
33876;SDS011;20166;51.738;7.158;2024-02-04T12:36:28;1.57;;;1.33;;
33876;SDS011;20166;51.738;7.158;2024-02-04T12:39:15;2.30;;;1.60;;
33876;SDS011;20166;51.738;7.158;2024-02-04T12:42:01;3.77;;;1.70;;
33876;SDS011;20166;51.738;7.158;2024-02-04T12:44:49;1.77;;;1.57;;
33876;SDS011;20166;51.738;7.158;2024-02-04T12:47:37;2.77;;;1.57;;
33876;SDS011;20166;51.738;7.158;2024-02-04T12:50:23;1.40;;;1.30;;
33876;SDS011;20166;51.738;7.158;2024-02-04T12:53:10;1.63;;;1.37;;
33876;SDS011;20166;51.738;7.158;2024-02-04T12:55:57;1.43;;;1.27;;
33876;SDS011;20166;51.738;7.158;2024-02-04T12:58:44;1.27;;;1.17;;
33876;SDS011;20166;51.738;7.158;2024-02-04T13:01:32;1.80;;;1.37;;
33876;SDS011;20166;51.738;7.158;2024-02-04T13:04:18;2.40;;;1.17;;
33876;SDS011;20166;51.738;7.158;2024-02-04T13:07:06;2.30;;;1.30;;
33876;SDS011;20166;51.738;7.158;2024-02-04T13:09:58;1.73;;;1.50;;
33876;SDS011;20166;51.738;7.158;2024-02-04T13:12:44;1.27;;;1.17;;
33876;SDS011;20166;51.738;7.158;2024-02-04T13:15:31;0.90;;;0.90;;
33876;SDS011;20166;51.738;7.158;2024-02-04T13:18:19;1.47;;;1.33;;
33876;SDS011;20166;51.738;7.158;2024-02-04T13:21:06;1.53;;;1.40;;
33876;SDS011;20166;51.738;7.158;2024-02-04T13:23:52;5.53;;;2.20;;
33876;SDS011;20166;51.738;7.158;2024-02-04T13:26:38;9.27;;;4.20;;
33876;SDS011;20166;51.738;7.158;2024-02-04T13:29:26;9.13;;;3.40;;
33876;SDS011;20166;51.738;7.158;2024-02-04T13:32:13;2.63;;;2.10;;
33876;SDS011;20166;51.738;7.158;2024-02-04T13:35:01;20.97;;;7.90;;
33876;SDS011;20166;51.738;7.158;2024-02-04T13:38:00;4.10;;;2.37;;
33876;SDS011;20166;51.738;7.158;2024-02-04T13:40:47;7.37;;;3.07;;
33876;SDS011;20166;51.738;7.158;2024-02-04T13:43:33;7.63;;;4.27;;
33876;SDS011;20166;51.738;7.158;2024-02-04T13:46:19;17.10;;;7.13;;
